This is the latest recevied weather packets stored in our database for station/object IV3CGM-13. If no packets are shown the sender has not sent any weather packets the latest 10 day(s).
| Time | Temp. | Humidity | Pressure | Rain* | Wind** | Luminosity | Snow |
|---|---|---|---|---|---|---|---|
| 1777824591 | 22.78° C | 42% | 1016.3 hPa | 0 mm | - | 176 W/m² | - |
| 1777823903 | 22.78° C | 36% | 1016.3 hPa | 0 mm | - | 194 W/m² | - |
| 1777821091 | 23.89° C | 35% | 1016.5 hPa | 0 mm | - | 340 W/m² | - |
| 1777819667 | 23.33° C | 34% | 1016.5 hPa | 0 mm | - | 479 W/m² | - |
| 1777818966 | 23.89° C | 34% | 1016.7 hPa | 0 mm | - | 538 W/m² | - |
| 1777817592 | 22.78° C | 36% | 1016.9 hPa | 0 mm | - | 534 W/m² | - |
| 1777815466 | 22.78° C | 40% | 1017.1 hPa | 0 mm | - | 653 W/m² | - |
| 1777814778 | 22.78° C | 38% | 1017.3 hPa | 0 mm | - | 676 W/m² | - |
| 1777802902 | 20° C | 46% | 1018.7 hPa | 0 mm | - | 788 W/m² | - |
| 1777800777 | 19.44° C | 45% | 1018.8 hPa | 0 mm | - | 790 W/m² | - |
| 1777800090 | 19.44° C | 46% | 1018.8 hPa | 0 mm | - | 744 W/m² | - |
| 1777799402 | 20° C | 44% | 1018.9 hPa | 0 mm | - | 620 W/m² | - |
| 1777798666 | 19.44° C | 46% | 1018.9 hPa | 0 mm | - | 600 W/m² | - |
| 1777797278 | 19.44° C | 46% | 1018.8 hPa | 0 mm | - | 679 W/m² | - |
| 1777796590 | 18.89° C | 48% | 1018.9 hPa | 0 mm | - | 660 W/m² | - |
| 1777795902 | 19.44° C | 46% | 1019 hPa | 0 mm | - | 602 W/m² | - |
| 1777795166 | 18.33° C | 48% | 1019 hPa | 0 mm | - | 562 W/m² | - |
| 1777793777 | 18.33° C | 49% | 1018.9 hPa | 0 mm | - | 407 W/m² | - |
| 1777793090 | 18.33° C | 50% | 1018.9 hPa | 0 mm | - | 499 W/m² | - |
| 1777792402 | 17.22° C | 49% | 1018.9 hPa | 0 mm | - | 435 W/m² | - |
| 1777791665 | 17.22° C | 52% | 1018.9 hPa | 0 mm | - | 155 W/m² | - |
| 1777790964 | 17.78° C | 51% | 1018.8 hPa | 0 mm | - | 338 W/m² | - |
| 1777790277 | 17.78° C | 54% | 1018.8 hPa | 0 mm | - | 77 W/m² | - |
| 1777789589 | 17.78° C | 52% | 1018.8 hPa | 0 mm | - | 75 W/m² | - |
| 1777788902 | 17.78° C | 49% | 1018.7 hPa | 0 mm | - | 250 W/m² | - |
* Rain latest hour (hover to see other rain measurements)
** Current wind speed in m/s (hover to see current wind gust speed)